Terminal Aerodrome Forecast
Issued by NWS

Home | Current Version | Previous Version | Text Only | Print | Product List | Glossary Off
Versions: 1 2 3 4 5 6 7 8 9 10 11 12 13 14 15 16 17 18 19 20 21 22 23 24 25 26 27 28 29 30 31 32 33 34 35 36 37 38 39 40 41

223
FTUS43 KGRB 230344 AAA
TAFATW
TAF AMD
KATW 230344Z 2304/2324 07011KT P6SM -SN SCT025 OVC040 WS020/14030KT
      TEMPO 2304/2306 2SM -FZDZSN BR OVC025
     FM230600 15008KT 3SM -FZRASNPL BR OVC006 WS020/20035KT
     FM231200 16006KT 3SM -RA BR OVC007 WS020/20035KT
     FM231500 23009G16KT 5SM -RA BR OVC007
     FM231700 27012G18KT P6SM BKN020=

USA.gov is the U.S. government's official web portal to all federal, state and local government web resources and services.